createdAt,value
2018-06-30T00:00:35.445Z,80.20
2018-06-30T00:03:03.698Z,80.40
2018-06-30T00:05:31.940Z,80.30
2018-06-30T00:08:00.173Z,80.40
2018-06-30T00:10:29.561Z,80.60
2018-06-30T00:12:58.694Z,80.60
2018-06-30T00:15:27.142Z,80.60
2018-06-30T00:17:55.598Z,80.90
2018-06-30T00:20:24.074Z,80.70
2018-06-30T00:22:52.884Z,81.00
2018-06-30T00:25:21.121Z,80.70
2018-06-30T00:27:49.451Z,80.90
2018-06-30T00:30:17.939Z,80.60
2018-06-30T00:32:46.282Z,80.90
2018-06-30T00:35:14.564Z,80.80
2018-06-30T00:37:42.802Z,80.60
2018-06-30T00:40:11.015Z,80.60
2018-06-30T00:42:39.259Z,80.90
2018-06-30T00:45:07.449Z,81.00
2018-06-30T00:47:35.698Z,80.80
2018-06-30T00:50:04.032Z,80.10
2018-06-30T00:52:32.522Z,80.00
2018-06-30T00:55:00.762Z,80.30
2018-06-30T00:57:29.238Z,80.70
2018-06-30T00:59:57.494Z,80.90
2018-06-30T01:02:26.118Z,80.70
2018-06-30T01:04:54.355Z,80.40
2018-06-30T01:07:22.704Z,80.60
2018-06-30T01:09:51.021Z,81.20
2018-06-30T01:12:19.252Z,81.70
2018-06-30T01:14:47.478Z,82.00
2018-06-30T01:17:15.690Z,82.90
2018-06-30T01:19:43.907Z,82.90
2018-06-30T01:22:12.117Z,82.90
2018-06-30T01:24:40.327Z,83.80
2018-06-30T01:27:08.755Z,84.20
2018-06-30T01:29:36.952Z,83.70
2018-06-30T01:32:05.418Z,83.90
2018-06-30T01:34:33.633Z,83.70
2018-06-30T01:37:01.838Z,83.80
2018-06-30T01:39:30.061Z,84.50
2018-06-30T01:41:58.941Z,84.30
2018-06-30T01:44:27.719Z,84.40
2018-06-30T01:46:55.934Z,84.00
2018-06-30T01:49:24.278Z,84.00
2018-06-30T01:51:52.542Z,83.50
2018-06-30T01:54:20.718Z,83.70
2018-06-30T01:56:48.919Z,84.00
2018-06-30T01:59:17.166Z,84.70
2018-06-30T02:01:45.408Z,84.60
2018-06-30T02:04:13.636Z,84.50
2018-06-30T02:06:41.891Z,84.80
2018-06-30T02:09:11.275Z,84.60
2018-06-30T02:11:39.864Z,84.20
2018-06-30T02:14:09.127Z,83.60
2018-06-30T02:16:37.335Z,83.50
2018-06-30T02:19:06.090Z,83.80
2018-06-30T02:21:34.356Z,84.10
2018-06-30T02:24:02.548Z,84.20
2018-06-30T02:26:31.125Z,84.20
2018-06-30T02:28:59.682Z,84.20
2018-06-30T02:31:28.098Z,83.40
2018-06-30T02:33:56.315Z,83.20
2018-06-30T02:36:24.550Z,83.00
2018-06-30T02:38:52.982Z,82.80
2018-06-30T02:41:21.247Z,83.70
2018-06-30T02:43:49.498Z,84.50
2018-06-30T02:46:17.763Z,84.20
2018-06-30T02:48:46.004Z,84.40
2018-06-30T02:51:14.287Z,84.60
2018-06-30T02:53:42.522Z,84.60
2018-06-30T02:56:10.731Z,85.20
2018-06-30T02:58:38.974Z,86.20
2018-06-30T03:01:07.194Z,86.10
2018-06-30T03:03:35.422Z,85.30
2018-06-30T03:06:03.682Z,84.70
2018-06-30T03:08:31.935Z,84.80
2018-06-30T03:11:00.202Z,84.80
2018-06-30T03:13:28.446Z,84.60
2018-06-30T03:15:56.660Z,84.30
2018-06-30T03:18:24.897Z,83.60
2018-06-30T03:20:53.136Z,84.00
2018-06-30T03:23:21.415Z,83.00
2018-06-30T03:25:49.627Z,83.00
2018-06-30T03:28:17.910Z,83.10
2018-06-30T03:30:46.145Z,83.10
2018-06-30T03:33:14.408Z,82.90
2018-06-30T03:35:42.643Z,82.90
2018-06-30T03:38:10.873Z,83.50
2018-06-30T03:40:39.095Z,83.70
2018-06-30T03:43:07.469Z,83.90
2018-06-30T03:45:36.071Z,84.00
2018-06-30T03:48:04.308Z,83.90
2018-06-30T03:50:32.566Z,84.60
2018-06-30T03:53:00.953Z,83.70
2018-06-30T03:55:29.183Z,83.20
2018-06-30T03:57:57.464Z,83.50
2018-06-30T04:00:25.706Z,82.60
2018-06-30T04:02:54.178Z,81.50
2018-06-30T04:05:22.591Z,81.80
2018-06-30T04:07:50.857Z,81.50
2018-06-30T04:10:19.154Z,81.40
2018-06-30T04:12:47.447Z,81.70
2018-06-30T04:15:15.772Z,81.80
2018-06-30T04:17:44.015Z,81.20
2018-06-30T04:20:12.325Z,81.00
2018-06-30T04:22:40.563Z,81.20
2018-06-30T04:25:08.778Z,81.20
2018-06-30T04:27:37.018Z,81.40
2018-06-30T04:30:05.280Z,80.50
2018-06-30T04:32:33.505Z,80.80
2018-06-30T04:35:01.966Z,80.50
2018-06-30T04:37:30.222Z,80.70
2018-06-30T04:39:58.474Z,80.70
2018-06-30T04:42:26.697Z,80.60
2018-06-30T04:44:54.928Z,80.30
2018-06-30T04:47:23.160Z,80.40
2018-06-30T04:49:51.401Z,80.70
2018-06-30T04:52:19.618Z,81.20
2018-06-30T04:54:48.684Z,79.80
2018-06-30T04:57:17.295Z,79.50
2018-06-30T04:59:45.528Z,78.80
2018-06-30T05:02:13.767Z,78.50
2018-06-30T05:07:10.218Z,77.70
2018-06-30T05:09:38.477Z,77.50
2018-06-30T05:12:06.707Z,76.80
2018-06-30T05:14:34.911Z,75.30
2018-06-30T05:17:03.159Z,74.60
2018-06-30T05:19:31.361Z,73.10
2018-06-30T05:21:59.603Z,71.80
2018-06-30T05:24:27.797Z,70.00
2018-06-30T05:26:55.998Z,68.20
2018-06-30T05:29:24.218Z,66.40
2018-06-30T05:31:52.451Z,65.10
2018-06-30T05:34:20.659Z,63.20
2018-06-30T05:36:48.893Z,62.50
2018-06-30T05:39:17.122Z,61.00
2018-06-30T05:41:45.401Z,60.00
2018-06-30T05:44:13.600Z,57.80
2018-06-30T05:46:41.834Z,58.30
2018-06-30T05:49:10.093Z,57.50
2018-06-30T05:51:38.305Z,56.60
2018-06-30T05:56:34.491Z,54.20
2018-06-30T05:59:02.737Z,54.20
2018-06-30T06:01:30.933Z,53.20
2018-06-30T06:03:59.209Z,52.40
2018-06-30T06:06:27.428Z,51.70
2018-06-30T06:08:55.691Z,50.70
2018-06-30T06:11:24.003Z,49.80
2018-06-30T06:13:52.272Z,49.80
2018-06-30T06:16:20.594Z,49.70
2018-06-30T06:18:48.788Z,50.00
2018-06-30T06:21:17.146Z,49.40
2018-06-30T06:23:45.224Z,49.00
2018-06-30T06:26:13.680Z,48.40
2018-06-30T06:28:41.875Z,47.40
2018-06-30T06:31:10.130Z,46.80
2018-06-30T06:33:38.418Z,46.30
2018-06-30T06:36:06.606Z,46.50
2018-06-30T06:38:34.850Z,45.80
2018-06-30T06:41:03.111Z,45.30
2018-06-30T06:43:31.427Z,42.90
2018-06-30T06:45:59.662Z,42.80
2018-06-30T06:48:27.979Z,42.90
2018-06-30T06:50:56.541Z,41.90
2018-06-30T06:53:24.750Z,40.90
2018-06-30T06:58:27.571Z,41.90
2018-06-30T07:00:55.815Z,40.50
2018-06-30T07:03:24.048Z,40.90
2018-06-30T07:05:52.274Z,39.80
2018-06-30T07:08:20.724Z,39.90
2018-06-30T07:10:48.912Z,39.60
2018-06-30T07:13:17.159Z,40.30
2018-06-30T07:15:45.419Z,40.60
2018-06-30T07:18:13.614Z,38.60
2018-06-30T07:20:41.895Z,37.60
2018-06-30T07:23:10.250Z,37.90
2018-06-30T07:25:38.534Z,37.20
2018-06-30T07:28:07.198Z,37.40
2018-06-30T07:30:35.441Z,36.50
2018-06-30T07:33:03.676Z,36.40
2018-06-30T07:35:32.005Z,36.90
2018-06-30T07:38:00.223Z,35.60
2018-06-30T07:40:28.451Z,34.90
2018-06-30T07:42:56.794Z,35.70
2018-06-30T07:45:25.024Z,36.20
2018-06-30T07:47:53.300Z,37.80
2018-06-30T07:50:21.706Z,38.90
2018-06-30T07:52:49.862Z,38.50
2018-06-30T07:55:18.119Z,39.30
2018-06-30T07:57:46.418Z,39.10
2018-06-30T08:00:14.751Z,39.50
2018-06-30T08:02:42.983Z,39.80
2018-06-30T08:05:11.241Z,39.50
2018-06-30T08:07:39.504Z,38.80
2018-06-30T08:10:07.726Z,38.30
2018-06-30T08:12:36.073Z,36.50
2018-06-30T08:15:04.609Z,37.00
2018-06-30T08:17:32.867Z,34.80
2018-06-30T08:20:01.209Z,34.80
2018-06-30T08:22:29.474Z,35.20
2018-06-30T08:24:57.660Z,34.40
2018-06-30T08:27:25.912Z,33.60
2018-06-30T08:29:54.237Z,34.50
2018-06-30T08:32:22.453Z,33.80
2018-06-30T08:34:50.679Z,34.30
2018-06-30T08:37:18.939Z,35.30
2018-06-30T08:39:47.150Z,36.30
2018-06-30T08:42:15.350Z,33.50
2018-06-30T08:44:43.674Z,30.30
2018-06-30T08:47:11.897Z,29.40
2018-06-30T08:49:40.119Z,29.70
2018-06-30T08:52:08.303Z,28.20
2018-06-30T08:54:36.599Z,27.20
2018-06-30T08:57:05.040Z,27.50
2018-06-30T08:59:33.202Z,28.20
2018-06-30T09:02:01.410Z,27.50
2018-06-30T09:04:29.703Z,27.70
2018-06-30T09:06:57.955Z,28.10
2018-06-30T09:09:26.202Z,29.20
2018-06-30T09:11:54.505Z,30.00
2018-06-30T09:14:22.698Z,28.10
2018-06-30T09:16:50.927Z,28.60
2018-06-30T09:19:19.181Z,28.20
2018-06-30T09:21:47.377Z,28.70
2018-06-30T09:24:15.693Z,27.60
2018-06-30T09:26:43.866Z,26.90
2018-06-30T09:29:12.118Z,26.20
2018-06-30T09:31:40.385Z,27.60
2018-06-30T09:34:09.075Z,26.80
2018-06-30T09:36:37.368Z,26.40
2018-06-30T09:39:07.788Z,27.20
2018-06-30T09:41:36.110Z,28.60
2018-06-30T09:44:04.781Z,28.40
2018-06-30T09:46:33.142Z,27.60
2018-06-30T09:49:01.395Z,28.40
2018-06-30T09:51:29.594Z,27.90
2018-06-30T09:53:57.804Z,25.20
2018-06-30T09:56:26.028Z,26.60
2018-06-30T09:58:54.293Z,27.10
2018-06-30T10:01:22.518Z,26.00
2018-06-30T10:03:50.743Z,26.00
2018-06-30T10:06:18.972Z,25.40
2018-06-30T10:08:47.260Z,26.10
2018-06-30T10:11:15.486Z,25.10
2018-06-30T10:13:43.694Z,26.50
2018-06-30T10:16:11.919Z,26.60
2018-06-30T10:18:40.100Z,25.60
2018-06-30T10:21:08.364Z,25.60
2018-06-30T10:23:36.532Z,25.30
2018-06-30T10:26:04.800Z,25.20
2018-06-30T10:28:33.038Z,24.50
2018-06-30T10:31:01.852Z,22.70
2018-06-30T10:33:30.131Z,22.90
2018-06-30T10:35:58.326Z,23.70
2018-06-30T10:38:26.784Z,22.60
2018-06-30T10:43:22.950Z,23.40
2018-06-30T10:45:51.184Z,23.30
2018-06-30T10:48:19.410Z,23.70
2018-06-30T10:50:47.669Z,23.80
2018-06-30T10:53:15.895Z,23.70
2018-06-30T10:55:44.195Z,24.10
2018-06-30T10:58:12.431Z,23.90
2018-06-30T11:00:40.657Z,24.30
2018-06-30T11:03:08.921Z,25.60
2018-06-30T11:05:37.143Z,26.50
2018-06-30T11:08:05.454Z,27.10
2018-06-30T11:10:33.681Z,28.50
2018-06-30T11:13:01.908Z,27.80
2018-06-30T11:15:30.119Z,28.20
2018-06-30T11:17:58.352Z,29.70
2018-06-30T11:20:26.621Z,30.20
2018-06-30T11:22:54.917Z,30.00
2018-06-30T11:25:23.127Z,30.30
2018-06-30T11:27:51.346Z,31.00
2018-06-30T11:30:19.579Z,30.80
2018-06-30T11:35:16.878Z,31.40
2018-06-30T11:37:45.126Z,30.00
2018-06-30T11:40:13.454Z,29.60
2018-06-30T11:42:41.654Z,29.20
2018-06-30T11:45:09.932Z,28.30
2018-06-30T11:47:38.169Z,28.50
2018-06-30T11:50:06.450Z,29.00
2018-06-30T11:52:34.704Z,29.70
2018-06-30T11:55:02.954Z,29.80
2018-06-30T11:57:31.177Z,29.50
2018-06-30T11:59:59.401Z,30.10
2018-06-30T12:02:27.645Z,30.00
2018-06-30T12:04:55.885Z,30.00
2018-06-30T12:07:24.122Z,29.70
2018-06-30T12:09:52.441Z,29.70
2018-06-30T12:12:20.675Z,30.20
2018-06-30T12:14:48.859Z,29.60
2018-06-30T12:17:17.115Z,29.60
2018-06-30T12:19:45.310Z,29.70
2018-06-30T12:22:13.513Z,29.10
2018-06-30T12:24:41.872Z,28.60
2018-06-30T12:27:10.080Z,28.60
2018-06-30T12:29:38.241Z,28.50
2018-06-30T12:32:06.519Z,28.70
2018-06-30T12:34:34.631Z,28.30
2018-06-30T12:37:02.814Z,27.90
2018-06-30T12:39:31.039Z,27.80
2018-06-30T12:41:59.241Z,28.30
2018-06-30T12:44:27.488Z,28.60
2018-06-30T12:46:55.680Z,29.00
2018-06-30T12:49:24.161Z,28.80
2018-06-30T12:51:52.377Z,29.00
2018-06-30T12:54:20.943Z,28.20
2018-06-30T12:56:49.030Z,28.60
2018-06-30T12:59:17.263Z,26.60
2018-06-30T13:01:45.517Z,27.80
2018-06-30T13:04:14.046Z,27.80
2018-06-30T13:06:42.237Z,27.50
2018-06-30T13:09:12.019Z,27.50
2018-06-30T13:11:42.076Z,27.20
2018-06-30T13:14:10.306Z,28.30
2018-06-30T13:16:38.935Z,27.40
2018-06-30T13:19:08.305Z,28.10
2018-06-30T13:21:36.568Z,28.30
2018-06-30T13:24:05.471Z,28.70
2018-06-30T13:26:33.708Z,28.30
2018-06-30T13:29:01.982Z,29.00
2018-06-30T13:31:30.461Z,29.40
2018-06-30T13:33:58.745Z,29.10
2018-06-30T13:36:27.005Z,28.30
2018-06-30T13:38:55.190Z,28.90
2018-06-30T13:41:23.456Z,27.40
2018-06-30T13:43:51.711Z,27.40
2018-06-30T13:46:19.964Z,28.10
2018-06-30T13:48:48.215Z,28.00
2018-06-30T13:51:16.818Z,27.60
2018-06-30T13:53:45.094Z,28.60
2018-06-30T13:56:13.347Z,28.20
2018-06-30T13:58:41.642Z,27.00
2018-06-30T14:01:09.877Z,27.40
2018-06-30T14:03:38.114Z,29.10
2018-06-30T14:06:06.346Z,29.80
2018-06-30T14:08:34.766Z,29.90
2018-06-30T14:11:02.998Z,30.00
2018-06-30T14:13:31.788Z,29.80
2018-06-30T14:15:59.994Z,30.40
2018-06-30T14:18:28.297Z,30.00
2018-06-30T14:20:56.414Z,29.70
2018-06-30T14:23:24.891Z,30.20
2018-06-30T14:25:53.090Z,31.60
2018-06-30T14:28:21.362Z,31.10
2018-06-30T14:30:49.578Z,31.10
2018-06-30T14:33:17.781Z,30.40
2018-06-30T14:35:45.956Z,30.60
2018-06-30T14:38:14.131Z,30.70
2018-06-30T14:40:42.354Z,30.90
2018-06-30T14:43:10.556Z,31.20
2018-06-30T14:45:38.772Z,30.90
2018-06-30T14:48:07.031Z,31.70
2018-06-30T14:50:35.716Z,32.10
2018-06-30T14:53:03.902Z,32.80
2018-06-30T14:55:32.624Z,33.70
2018-06-30T14:58:00.871Z,33.80
2018-06-30T15:00:29.057Z,33.70
2018-06-30T15:02:57.308Z,33.40
2018-06-30T15:05:25.554Z,33.20
2018-06-30T15:07:53.758Z,33.00
2018-06-30T15:10:21.955Z,32.80
2018-06-30T15:12:50.205Z,33.10
2018-06-30T15:15:18.363Z,33.20
2018-06-30T15:17:46.558Z,33.10
2018-06-30T15:20:14.750Z,33.00
2018-06-30T15:22:42.948Z,33.10
2018-06-30T15:25:11.147Z,32.80
2018-06-30T15:27:39.352Z,33.50
2018-06-30T15:30:07.547Z,33.90
2018-06-30T15:32:35.749Z,34.00
2018-06-30T15:35:03.960Z,34.00
2018-06-30T15:37:32.303Z,34.80
2018-06-30T15:40:00.538Z,35.10
2018-06-30T15:42:28.896Z,35.50
2018-06-30T15:44:57.078Z,35.70
2018-06-30T15:47:25.311Z,35.80
2018-06-30T15:49:53.526Z,35.80
2018-06-30T15:52:21.794Z,36.10
2018-06-30T15:54:50.259Z,35.70
2018-06-30T15:57:18.537Z,36.00
2018-06-30T15:59:46.786Z,35.40
2018-06-30T16:02:15.726Z,35.60
2018-06-30T16:04:43.951Z,35.20
2018-06-30T16:07:12.251Z,35.30
2018-06-30T16:09:40.454Z,35.40
2018-06-30T16:12:08.705Z,35.50
2018-06-30T16:14:36.978Z,34.70
2018-06-30T16:19:39.918Z,34.70
2018-06-30T16:22:08.179Z,34.80
2018-06-30T16:24:36.467Z,35.20
2018-06-30T16:27:04.931Z,35.20
2018-06-30T16:29:33.334Z,35.30
2018-06-30T16:32:02.189Z,35.20
2018-06-30T16:34:30.467Z,34.60
2018-06-30T16:36:58.699Z,34.30
2018-06-30T16:39:27.182Z,34.60
2018-06-30T16:41:55.400Z,34.50
2018-06-30T16:44:23.750Z,34.50
2018-06-30T16:46:52.007Z,34.60
2018-06-30T16:49:20.227Z,34.20
2018-06-30T16:51:48.474Z,35.10
2018-06-30T16:54:16.800Z,36.00
2018-06-30T16:56:45.031Z,35.20
2018-06-30T16:59:13.218Z,34.70
2018-06-30T17:01:42.405Z,35.00
2018-06-30T17:04:11.162Z,35.20
2018-06-30T17:06:39.381Z,35.30
2018-06-30T17:09:11.661Z,35.30
2018-06-30T17:11:39.910Z,35.50
2018-06-30T17:14:08.239Z,34.50
2018-06-30T17:16:36.450Z,34.80
2018-06-30T17:19:04.688Z,35.40
2018-06-30T17:21:33.531Z,34.80
2018-06-30T17:24:01.727Z,34.80
2018-06-30T17:26:30.325Z,34.20
2018-06-30T17:28:58.486Z,34.50
2018-06-30T17:31:26.706Z,34.70
2018-06-30T17:33:55.018Z,34.80
2018-06-30T17:36:23.297Z,34.90
2018-06-30T17:38:51.565Z,35.30
2018-06-30T17:41:19.848Z,35.50
2018-06-30T17:43:48.038Z,35.80
2018-06-30T17:46:16.274Z,35.90
2018-06-30T17:48:44.479Z,35.60
2018-06-30T17:51:12.763Z,35.80
2018-06-30T17:53:40.999Z,35.40
2018-06-30T17:56:09.225Z,35.60
2018-06-30T17:58:37.548Z,36.20
2018-06-30T18:01:05.903Z,36.30
2018-06-30T18:03:34.129Z,36.20
2018-06-30T18:06:02.334Z,36.20
2018-06-30T18:08:30.590Z,36.40
2018-06-30T18:10:58.821Z,36.40
2018-06-30T18:13:27.035Z,36.20
2018-06-30T18:15:55.349Z,36.30
2018-06-30T18:18:23.545Z,36.70
2018-06-30T18:20:51.856Z,37.10
2018-06-30T18:23:20.138Z,37.40
2018-06-30T18:25:48.402Z,37.30
2018-06-30T18:28:16.750Z,37.20
2018-06-30T18:30:45.050Z,37.10
2018-06-30T18:33:13.358Z,37.30
2018-06-30T18:35:41.695Z,37.20
2018-06-30T18:38:11.162Z,37.20
2018-06-30T18:40:40.084Z,36.00
2018-06-30T18:43:08.338Z,35.00
2018-06-30T18:45:37.931Z,33.40
2018-06-30T18:48:06.178Z,33.00
2018-06-30T18:50:34.435Z,33.00
2018-06-30T18:53:02.677Z,33.00
2018-06-30T18:55:31.038Z,32.60
2018-06-30T18:57:59.646Z,32.90
2018-06-30T19:00:27.958Z,33.30
2018-06-30T19:02:56.239Z,32.50
2018-06-30T19:05:24.588Z,31.80
2018-06-30T19:07:53.673Z,30.90
2018-06-30T19:10:22.019Z,31.00
2018-06-30T19:12:50.795Z,31.10
2018-06-30T19:15:20.057Z,31.30
2018-06-30T19:17:49.531Z,31.40
2018-06-30T19:20:17.842Z,31.40
2018-06-30T19:22:46.695Z,31.60
2018-06-30T19:25:14.955Z,31.70
2018-06-30T19:27:43.270Z,31.80
2018-06-30T19:30:11.534Z,32.20
2018-06-30T19:32:41.439Z,32.90
2018-06-30T19:35:09.684Z,32.60
2018-06-30T19:37:38.182Z,32.60
2018-06-30T19:40:06.463Z,32.80
2018-06-30T19:42:35.282Z,33.10
2018-06-30T19:45:03.548Z,31.40
2018-06-30T19:47:31.799Z,31.60
2018-06-30T19:50:00.037Z,32.30
2018-06-30T19:52:28.767Z,31.40
2018-06-30T19:54:57.950Z,31.80
2018-06-30T19:57:26.194Z,31.40
2018-06-30T19:59:54.509Z,31.40
2018-06-30T20:02:23.150Z,31.20
2018-06-30T20:04:51.510Z,31.50
2018-06-30T20:07:19.774Z,30.90
2018-06-30T20:09:48.051Z,30.70
2018-06-30T20:12:16.391Z,30.00
2018-06-30T20:14:44.641Z,30.00
2018-06-30T20:17:12.876Z,30.00
2018-06-30T20:19:41.622Z,30.20
2018-06-30T20:22:11.103Z,29.80
2018-06-30T20:24:39.974Z,29.70
2018-06-30T20:27:08.247Z,29.50
2018-06-30T20:29:36.579Z,29.60
2018-06-30T20:32:04.797Z,29.50
2018-06-30T20:34:33.000Z,29.80
2018-06-30T20:37:01.240Z,29.80
2018-06-30T20:39:29.536Z,29.80
2018-06-30T20:41:58.274Z,30.10
2018-06-30T20:44:26.574Z,29.60
2018-06-30T20:46:54.934Z,29.70
2018-06-30T20:49:23.138Z,29.90
2018-06-30T20:51:51.467Z,29.70
2018-06-30T20:54:19.716Z,30.10
2018-06-30T20:56:47.973Z,30.20
2018-06-30T20:59:16.171Z,30.40
2018-06-30T21:01:44.394Z,30.40
2018-06-30T21:04:12.694Z,30.50
2018-06-30T21:06:40.909Z,30.10
2018-06-30T21:09:10.374Z,30.20
2018-06-30T21:11:38.623Z,29.10
2018-06-30T21:14:06.973Z,29.50
2018-06-30T21:16:35.223Z,29.20
2018-06-30T21:19:03.539Z,28.80
2018-06-30T21:21:31.968Z,29.10
2018-06-30T21:24:00.322Z,29.10
2018-06-30T21:26:28.572Z,29.10
2018-06-30T21:28:56.945Z,28.70
2018-06-30T21:31:25.133Z,29.00
2018-06-30T21:33:53.391Z,28.70
2018-06-30T21:36:22.487Z,28.60
2018-06-30T21:38:51.226Z,28.80
2018-06-30T21:41:19.535Z,28.80
2018-06-30T21:43:47.760Z,28.70
2018-06-30T21:46:15.967Z,29.10
2018-06-30T21:48:44.282Z,29.30
2018-06-30T21:51:13.335Z,29.10
2018-06-30T21:53:41.666Z,29.30
2018-06-30T21:56:11.768Z,29.00
2018-06-30T21:58:39.984Z,29.00
2018-06-30T22:01:13.474Z,28.80
2018-06-30T22:03:43.493Z,28.70
2018-06-30T22:06:12.329Z,28.40
2018-06-30T22:08:40.663Z,28.30
2018-06-30T22:11:09.445Z,28.50
2018-06-30T22:13:37.839Z,28.20
2018-06-30T22:16:06.162Z,28.90
2018-06-30T22:18:34.511Z,28.70
2018-06-30T22:21:02.687Z,28.90
2018-06-30T22:23:30.879Z,28.90
2018-06-30T22:25:59.079Z,29.00
2018-06-30T22:28:27.332Z,28.50
2018-06-30T22:30:55.592Z,28.60
2018-06-30T22:33:23.866Z,28.40
2018-06-30T22:35:52.163Z,28.80
2018-06-30T22:38:20.420Z,28.80
2018-06-30T22:43:16.696Z,29.20
2018-06-30T22:45:44.970Z,29.10
2018-06-30T22:48:13.238Z,29.40
2018-06-30T22:50:41.467Z,29.60
2018-06-30T22:53:09.762Z,29.70
2018-06-30T22:55:38.078Z,29.90
2018-06-30T22:58:06.326Z,29.90
2018-06-30T23:00:34.678Z,30.00
2018-06-30T23:03:08.293Z,30.60
2018-06-30T23:05:36.822Z,30.60
2018-06-30T23:08:05.092Z,30.90
2018-06-30T23:10:33.454Z,31.00
2018-06-30T23:13:01.650Z,31.20
2018-06-30T23:15:29.907Z,31.20
2018-06-30T23:17:58.175Z,31.30
2018-06-30T23:20:26.442Z,31.60
2018-06-30T23:23:02.629Z,31.80
2018-06-30T23:25:31.942Z,31.90
2018-06-30T23:28:00.609Z,32.20
2018-06-30T23:30:29.499Z,32.30
2018-06-30T23:32:57.775Z,32.40
2018-06-30T23:35:27.258Z,32.20
2018-06-30T23:37:56.531Z,32.70
2018-06-30T23:40:24.820Z,31.90
2018-06-30T23:42:53.242Z,32.00
2018-06-30T23:45:22.027Z,32.20
2018-06-30T23:47:51.114Z,32.30
2018-06-30T23:50:19.677Z,32.40
2018-06-30T23:52:48.005Z,32.10
2018-06-30T23:55:16.266Z,32.20
2018-06-30T23:57:44.537Z,33.00
